Time;durP1;ratioP1;P1;durP2;ratioP2;P2;SDS_P1;SDS_P2;PMS_P1;PMS_P2;Temp;Humidity;BMP_temperature;BMP_pressure;BME280_temperature;BME280_humidity;BME280_pressure;Samples;Min_cycle;Max_cycle;Signal;HPM_P1;HPM_P2
2023/10/19 00:00:39;;;;;;;21.30;12.13;;;;;;;10.18;100.00;99151.34;4988929;28;20052;-68
2023/10/19 00:03:06;;;;;;;21.90;12.63;;;;;;;10.22;100.00;99138.81;4987073;28;20061;-68
2023/10/19 00:05:35;;;;;;;22.77;12.63;;;;;;;10.21;100.00;99145.81;5004672;28;20085;-68
2023/10/19 00:08:07;;;;;;;23.75;11.95;;;;;;;10.15;100.00;99136.19;5003924;28;20636;-67
2023/10/19 00:10:35;;;;;;;20.95;12.07;;;;;;;10.25;100.00;99143.63;5002631;28;20044;-68
2023/10/19 00:13:05;;;;;;;20.98;10.23;;;;;;;10.17;100.00;99152.38;5001155;28;20041;-68
2023/10/19 00:15:37;;;;;;;20.50;11.90;;;;;;;10.21;100.00;99138.03;5001685;28;20064;-68
2023/10/19 00:18:20;;;;;;;20.33;11.60;;;;;;;10.20;100.00;99126.06;4966144;28;20105;-68
2023/10/19 00:20:52;;;;;;;22.67;13.27;;;;;;;10.23;100.00;99135.25;4987730;28;20041;-68
2023/10/19 00:23:24;;;;;;;23.40;11.00;;;;;;;10.22;100.00;99134.44;4984938;28;20069;-68
2023/10/19 00:25:53;;;;;;;21.38;11.88;;;;;;;10.26;100.00;99124.47;4985924;28;20030;-68
2023/10/19 00:28:19;;;;;;;19.38;12.55;;;;;;;10.30;100.00;99123.94;4972704;28;20492;-68
2023/10/19 00:30:45;;;;;;;18.33;11.13;;;;;;;10.37;100.00;99123.16;4986815;28;20029;-68
2023/10/19 00:33:19;;;;;;;19.58;11.93;;;;;;;10.35;100.00;99125.94;4956839;28;20053;-68
2023/10/19 00:41:00;;;;;;;20.50;11.57;;;;;;;10.38;100.00;99140.28;4986041;28;20030;-68
2023/10/19 00:43:28;;;;;;;25.35;12.40;;;;;;;10.36;100.00;99140.50;4971150;28;20499;-68
2023/10/19 00:45:54;;;;;;;20.60;12.68;;;;;;;10.39;100.00;99136.72;4987519;28;20137;-68
2023/10/19 00:48:26;;;;;;;20.83;12.65;;;;;;;10.40;100.00;99136.53;4988550;28;20113;-68
2023/10/19 00:51:03;;;;;;;27.38;12.57;;;;;;;10.42;100.00;99131.94;4988004;28;20045;-68
2023/10/19 00:53:29;;;;;;;21.08;12.25;;;;;;;10.46;100.00;99129.75;4972172;28;20046;-68
2023/10/19 00:55:54;;;;;;;21.33;14.07;;;;;;;10.47;100.00;99131.34;4987475;28;20034;-68
2023/10/19 00:58:29;;;;;;;18.45;11.85;;;;;;;10.45;100.00;99125.56;4982362;28;20041;-68
2023/10/19 01:00:55;;;;;;;20.70;12.60;;;;;;;10.42;100.00;99126.75;4985395;28;20044;-68
2023/10/19 01:03:20;;;;;;;21.65;12.63;;;;;;;10.50;100.00;99120.59;4974732;28;20046;-68
2023/10/19 01:05:49;;;;;;;25.90;12.93;;;;;;;10.47;100.00;99119.22;5003769;28;20093;-68
2023/10/19 01:08:26;;;;;;;19.95;11.82;;;;;;;10.49;100.00;99114.63;5002540;28;20042;-68
2023/10/19 01:10:53;;;;;;;22.05;12.75;;;;;;;10.56;100.00;99111.25;4987562;28;20030;-68
2023/10/19 01:13:26;;;;;;;24.05;13.20;;;;;;;10.58;100.00;99127.38;4984305;28;20175;-68
2023/10/19 01:15:52;;;;;;;;;;;;;;;10.60;100.00;99113.22;5000024;28;20154;-68
2023/10/19 01:18:18;;;;;;;20.13;12.32;;;;;;;10.58;100.00;99125.59;4983650;28;20008;-68
2023/10/19 01:20:55;;;;;;;21.77;12.50;;;;;;;10.57;100.00;99126.59;4987692;28;20508;-68
2023/10/19 01:23:21;;;;;;;24.48;13.73;;;;;;;10.70;100.00;99133.59;4984533;28;20050;-69
2023/10/19 01:28:25;;;;;;;26.80;14.10;;;;;;;10.77;100.00;99128.41;4985775;28;20444;-68
2023/10/19 01:30:51;;;;;;;24.48;13.85;;;;;;;10.86;100.00;99119.44;4988429;28;20129;-68
2023/10/19 01:33:24;;;;;;;35.75;15.15;;;;;;;10.87;100.00;99126.25;5001702;28;20129;-68
2023/10/19 01:38:34;;;;;;;19.45;13.15;;;;;;;10.82;100.00;99123.44;5001718;28;20041;-68
2023/10/19 01:41:00;;;;;;;24.48;12.88;;;;;;;10.84;100.00;99121.44;4983733;28;20037;-68
2023/10/19 01:43:32;;;;;;;26.15;13.88;;;;;;;10.84;100.00;99114.47;5003711;28;20050;-68
2023/10/19 01:46:04;;;;;;;23.65;13.52;;;;;;;10.95;100.00;99112.28;4984881;28;20117;-68
2023/10/19 01:48:35;;;;;;;27.23;12.93;;;;;;;10.89;100.00;99108.69;4982268;28;20037;-68
2023/10/19 01:51:05;;;;;;;23.40;13.25;;;;;;;10.92;100.00;99105.69;4985537;28;20034;-68
2023/10/19 01:53:39;;;;;;;28.13;13.57;;;;;;;11.04;100.00;99093.72;5000563;28;20803;-68
2023/10/19 01:56:05;;;;;;;22.88;13.75;;;;;;;10.93;100.00;99102.09;4985786;28;21042;-68
2023/10/19 01:58:36;;;;;;;24.48;13.32;;;;;;;11.00;100.00;99094.31;4988827;28;20029;-68
2023/10/19 02:03:41;;;;;;;25.63;13.55;;;;;;;11.01;100.00;99099.31;4988540;28;20034;-69
2023/10/19 02:06:17;;;;;;;23.55;12.32;;;;;;;10.93;100.00;99104.69;5002358;28;20041;-68
2023/10/19 02:08:51;;;;;;;24.80;13.27;;;;;;;10.98;100.00;99096.31;4977126;28;20053;-68
2023/10/19 02:11:24;;;;;;;21.80;12.32;;;;;;;10.93;100.00;99094.31;4983973;28;20037;-68
2023/10/19 02:13:55;;;;;;;21.77;13.27;;;;;;;10.95;100.00;99091.53;4972658;28;20045;-68
2023/10/19 02:16:22;;;;;;;25.77;13.20;;;;;;;10.99;100.00;99097.91;5000708;28;20566;-68
2023/10/19 02:18:49;;;;;;;25.05;13.38;;;;;;;11.10;100.00;99097.31;4986100;28;20042;-68
2023/10/19 02:21:19;;;;;;;20.65;11.18;;;;;;;11.01;100.00;99099.31;4989778;28;20033;-68
2023/10/19 02:23:45;;;;;;;21.90;12.25;;;;;;;11.09;100.00;99093.94;4973587;28;20033;-68
2023/10/19 02:26:13;;;;;;;22.40;11.23;;;;;;;11.19;100.00;99096.13;4970062;28;20653;-68
2023/10/19 02:28:39;;;;;;;22.02;11.05;;;;;;;11.13;100.00;99094.31;4984534;28;20670;-68
2023/10/19 02:31:15;;;;;;;21.75;11.73;;;;;;;11.22;100.00;99089.72;5002840;28;20084;-68
2023/10/19 02:33:50;;;;;;;22.45;11.52;;;;;;;11.20;100.00;99083.94;4999319;28;20492;-68
2023/10/19 02:36:16;;;;;;;22.23;11.55;;;;;;;11.28;100.00;99081.13;4984414;28;20041;-68
2023/10/19 02:38:44;;;;;;;21.10;10.32;;;;;;;11.28;100.00;99087.13;4985679;28;20033;-68
2023/10/19 02:41:10;;;;;;;19.33;10.52;;;;;;;11.21;100.00;99090.72;4987382;28;20038;-68
2023/10/19 02:43:38;;;;;;;20.30;10.60;;;;;;;11.20;100.00;99092.50;4986605;28;20045;-68
2023/10/19 02:46:04;;;;;;;19.23;10.93;;;;;;;11.21;100.00;99085.53;4985301;28;20077;-68
2023/10/19 02:48:30;;;;;;;21.30;9.55;;;;;;;11.28;100.00;99086.31;4982337;28;20435;-68
2023/10/19 02:50:58;;;;;;;17.25;9.93;;;;;;;11.35;100.00;99081.91;4983988;28;20037;-68
2023/10/19 02:53:24;;;;;;;17.00;9.43;;;;;;;11.37;100.00;99082.50;5001216;28;20041;-68
2023/10/19 02:55:51;;;;;;;17.70;9.38;;;;;;;11.45;100.00;99084.91;4983965;28;20080;-69
2023/10/19 02:58:16;;;;;;;20.05;9.15;;;;;;;11.51;100.00;99080.69;4965865;28;20050;-68
2023/10/19 03:00:42;;;;;;;18.40;9.68;;;;;;;11.40;100.00;99076.13;4985317;28;20049;-68
2023/10/19 03:03:07;;;;;;;16.65;9.52;;;;;;;11.44;100.00;99077.31;4966353;28;20038;-68
2023/10/19 03:05:36;;;;;;;21.35;10.15;;;;;;;11.46;100.00;99076.09;5003010;28;20037;-68
2023/10/19 03:08:05;;;;;;;21.42;10.85;;;;;;;11.44;100.00;99067.72;4982140;28;20037;-68
2023/10/19 03:10:41;;;;;;;17.55;10.95;;;;;;;11.37;100.00;99066.16;4997965;28;20041;-68
2023/10/19 03:13:09;;;;;;;18.08;11.20;;;;;;;11.38;100.00;99065.94;4987569;28;20097;-68
2023/10/19 03:15:35;;;;;;;20.50;11.68;;;;;;;11.28;100.00;99065.56;4986507;28;20096;-68
2023/10/19 03:18:01;;;;;;;22.80;13.18;;;;;;;11.26;100.00;99073.56;5000919;28;20037;-69
2023/10/19 03:20:28;;;;;;;16.15;11.23;;;;;;;11.30;100.00;99072.16;4986324;28;20041;-68
2023/10/19 03:22:58;;;;;;;22.77;12.88;;;;;;;11.27;100.00;99066.56;4999846;28;20444;-68
2023/10/19 03:28:18;;;;;;;18.08;11.38;;;;;;;11.38;100.00;99062.56;4984318;28;20045;-68
2023/10/19 03:30:43;;;;;;;20.33;11.43;;;;;;;11.47;100.00;99062.13;4998417;28;20030;-68
2023/10/19 03:33:09;;;;;;;19.63;11.98;;;;;;;11.40;100.00;99056.16;4984396;28;20034;-68
2023/10/19 03:35:37;;;;;;;19.90;11.68;;;;;;;11.49;100.00;99054.94;4987392;28;20080;-68
2023/10/19 03:38:08;;;;;;;16.35;11.00;;;;;;;11.46;100.00;99042.34;4998630;28;20722;-68
2023/10/19 03:40:38;;;;;;;18.23;11.55;;;;;;;11.46;100.00;99034.56;4983957;28;20076;-68
2023/10/19 03:43:14;;;;;;;22.38;12.30;;;;;;;11.37;100.00;99042.78;4983714;28;20042;-68
2023/10/19 03:45:44;;;;;;;20.30;11.73;;;;;;;11.43;100.00;99037.59;5004462;28;20045;-68
2023/10/19 03:48:10;;;;;;;20.90;12.75;;;;;;;11.44;100.00;99036.56;5001849;28;20038;-68
2023/10/19 03:50:37;;;;;;;18.95;12.57;;;;;;;11.36;100.00;99029.03;4987010;28;20038;-68
2023/10/19 03:53:04;;;;;;;20.92;12.55;;;;;;;11.38;100.00;99024.44;4988774;28;20269;-68
2023/10/19 03:55:30;;;;;;;24.55;12.95;;;;;;;11.31;100.00;99031.44;4990803;28;20482;-68
2023/10/19 03:57:55;;;;;;;21.80;12.82;;;;;;;11.42;100.00;99028.19;5004360;28;20038;-68
2023/10/19 04:00:24;;;;;;;21.13;12.18;;;;;;;11.40;100.00;99032.00;4980324;23;20047;-66
2023/10/19 04:02:54;;;;;;;24.00;12.13;;;;;;;11.45;100.00;99027.00;4958797;28;20109;-66
2023/10/19 04:05:22;;;;;;;21.85;11.80;;;;;;;11.39;100.00;99026.00;4949933;28;21316;-65
2023/10/19 04:07:55;;;;;;;22.38;12.68;;;;;;;11.43;100.00;99023.81;4962389;28;20125;-66
2023/10/19 04:10:30;;;;;;;;;;;;;;;11.36;100.00;99031.63;4963486;28;20502;-66
2023/10/19 04:12:57;;;;;;;19.48;11.70;;;;;;;11.30;100.00;99032.41;4966480;28;20071;-66
2023/10/19 04:15:22;;;;;;;18.45;12.50;;;;;;;11.33;100.00;99033.81;4982170;28;20554;-66
2023/10/19 04:17:48;;;;;;;23.98;12.60;;;;;;;11.35;100.00;99035.19;4957266;28;20040;-66
2023/10/19 04:22:43;;;;;;;22.25;12.73;;;;;;;11.46;100.00;99039.75;4952323;28;20043;-66
2023/10/19 04:25:12;;;;;;;25.20;12.65;;;;;;;11.53;100.00;99031.16;4947400;28;20054;-66
2023/10/19 04:27:42;;;;;;;18.60;12.52;;;;;;;11.53;100.00;99036.34;4962480;28;20090;-66
2023/10/19 04:30:27;;;;;;;17.90;11.68;;;;;;;11.41;100.00;99034.38;4964061;28;20050;-66
2023/10/19 04:32:53;;;;;;;20.15;12.25;;;;;;;11.27;100.00;99040.63;4981001;28;20048;-67
2023/10/19 04:35:21;;;;;;;21.05;12.07;;;;;;;11.22;100.00;99030.84;4966103;28;20039;-66
2023/10/19 04:37:51;;;;;;;20.95;13.65;;;;;;;11.32;100.00;99037.41;4964892;28;20031;-67
2023/10/19 04:40:18;;;;;;;22.60;13.05;;;;;;;11.37;100.00;99032.41;4966489;28;20035;-67
2023/10/19 04:42:45;;;;;;;21.27;12.05;;;;;;;11.35;100.00;99034.41;4978497;28;20536;-67
2023/10/19 04:45:12;;;;;;;21.70;12.35;;;;;;;11.35;100.00;99026.63;4969026;28;20126;-66
2023/10/19 04:47:37;;;;;;;21.40;11.27;;;;;;;11.38;100.00;99023.63;4978960;28;20067;-67
2023/10/19 04:50:04;;;;;;;21.88;12.68;;;;;;;11.41;100.00;99029.19;4964225;28;20043;-67
2023/10/19 04:52:30;;;;;;;21.70;12.32;;;;;;;11.45;100.00;99029.59;4946989;28;20521;-66
2023/10/19 04:54:55;;;;;;;20.63;10.85;;;;;;;11.36;100.00;99023.00;4948636;28;20082;-67
2023/10/19 04:57:21;;;;;;;21.58;10.85;;;;;;;11.38;100.00;99032.22;4952012;28;20031;-67
2023/10/19 04:59:47;;;;;;;24.88;11.18;;;;;;;11.40;100.00;99032.81;4967248;28;20428;-67
2023/10/19 05:02:13;;;;;;;17.58;11.27;;;;;;;11.44;100.00;99036.56;4963800;28;20047;-66
2023/10/19 05:04:38;;;;;;;21.63;11.77;;;;;;;11.45;100.00;99033.00;4963668;28;20133;-66
2023/10/19 05:07:04;;;;;;;18.77;10.52;;;;;;;11.42;100.00;99038.59;4966305;28;20386;-67
2023/10/19 05:09:32;;;;;;;19.40;10.95;;;;;;;11.36;100.00;99042.00;4948726;28;20050;-66
2023/10/19 05:11:58;;;;;;;19.98;10.23;;;;;;;11.36;100.00;99036.81;4963739;28;20037;-67
2023/10/19 05:14:24;;;;;;;19.92;10.98;;;;;;;11.36;100.00;99036.81;4965381;28;20030;-67
2023/10/19 05:16:49;;;;;;;17.95;10.32;;;;;;;11.47;100.00;99040.56;4967566;28;20370;-67
2023/10/19 05:19:15;;;;;;;20.67;11.15;;;;;;;11.42;100.00;99035.19;4965884;28;20038;-66
2023/10/19 05:21:40;;;;;;;22.88;10.43;;;;;;;11.38;100.00;99037.41;4980550;28;20130;-67
2023/10/19 05:24:07;;;;;;;16.48;10.55;;;;;;;11.38;100.00;99031.41;4964975;28;20038;-66
2023/10/19 05:26:35;;;;;;;17.40;10.85;;;;;;;11.33;100.00;99033.81;4949248;28;20031;-67
2023/10/19 05:29:01;;;;;;;20.38;10.32;;;;;;;11.36;100.00;99025.63;4964724;28;20050;-67
2023/10/19 05:31:28;;;;;;;22.13;11.00;;;;;;;11.34;100.00;99038.00;4966503;28;20038;-66
2023/10/19 05:33:53;;;;;;;21.83;10.40;;;;;;;11.39;100.00;99033.78;4966888;28;21322;-67
2023/10/19 05:36:19;;;;;;;26.00;11.98;;;;;;;11.34;100.00;99033.63;4946847;28;20069;-67
2023/10/19 05:38:45;;;;;;;20.67;11.18;;;;;;;11.35;100.00;99031.81;4966137;28;20035;-67
2023/10/19 05:41:11;;;;;;;18.70;10.90;;;;;;;11.39;100.00;99031.19;4966339;28;20393;-67
2023/10/19 05:43:38;;;;;;;24.73;10.35;;;;;;;11.42;100.00;99028.19;4934904;28;20054;-66
2023/10/19 05:46:03;;;;;;;23.98;10.43;;;;;;;11.36;100.00;99044.59;4943443;28;20039;-67
2023/10/19 05:48:28;;;;;;;24.45;10.90;;;;;;;11.31;100.00;99049.59;4955820;28;20106;-66
2023/10/19 05:50:54;;;;;;;18.10;10.27;;;;;;;11.52;100.00;99042.56;4928915;29;20441;-66
2023/10/19 05:53:22;;;;;;;17.00;9.80;;;;;;;11.46;100.00;99038.97;4961634;28;20065;-66
2023/10/19 05:55:50;;;;;;;20.13;10.48;;;;;;;11.47;100.00;99037.97;4966356;28;20086;-67
2023/10/19 05:58:16;;;;;;;22.38;10.20;;;;;;;11.44;100.00;99052.16;4950567;28;20047;-67
2023/10/19 06:00:42;;;;;;;24.02;11.30;;;;;;;11.46;100.00;99051.94;4947381;28;20039;-66
2023/10/19 06:03:07;;;;;;;18.63;9.88;;;;;;;11.58;100.00;99055.50;4943413;28;20440;-67
2023/10/19 06:05:33;;;;;;;22.42;11.00;;;;;;;11.53;100.00;99049.31;4966726;28;20027;-66
2023/10/19 06:07:59;;;;;;;18.58;9.32;;;;;;;11.45;100.00;99058.94;4963834;28;20093;-66
2023/10/19 06:10:28;;;;;;;16.77;8.93;;;;;;;11.44;100.00;99057.34;4948146;28;20053;-67
2023/10/19 06:12:54;;;;;;;19.58;10.30;;;;;;;11.46;100.00;99064.94;4957391;28;20505;-66
2023/10/19 06:15:22;;;;;;;19.58;10.68;;;;;;;11.50;100.00;99059.13;4952158;28;20023;-66
2023/10/19 06:17:47;;;;;;;20.70;10.18;;;;;;;11.44;100.00;99064.34;4939714;28;20053;-67
2023/10/19 06:20:23;;;;;;;20.55;10.80;;;;;;;11.54;100.00;99061.31;4966477;28;20046;-66
2023/10/19 06:23:04;;;;;;;21.48;10.48;;;;;;;11.60;100.00;99065.69;4942929;28;20405;-66
2023/10/19 06:25:30;;;;;;;19.67;9.43;;;;;;;11.63;100.00;99062.69;4947494;28;20035;-66
2023/10/19 06:27:57;;;;;;;18.38;9.68;;;;;;;11.54;100.00;99071.69;4949399;28;20046;-66
2023/10/19 06:30:23;;;;;;;21.30;10.85;;;;;;;11.69;100.00;99074.84;4934049;28;20031;-66
2023/10/19 06:32:51;;;;;;;22.83;10.10;;;;;;;11.76;100.00;99077.44;4955188;28;20042;-67
2023/10/19 06:35:21;;;;;;;16.40;10.75;;;;;;;11.67;100.00;99066.47;4964496;28;20505;-66
2023/10/19 06:37:46;;;;;;;24.48;10.30;;;;;;;11.69;100.00;99067.84;4963957;28;20070;-66
2023/10/19 06:40:16;;;;;;;19.95;10.25;;;;;;;11.69;100.00;99067.06;4966517;28;20116;-66
2023/10/19 06:42:46;;;;;;;29.17;10.90;;;;;;;11.70;100.00;99076.44;4947864;28;20050;-67
2023/10/19 06:45:16;;;;;;;28.85;11.95;;;;;;;11.68;100.00;99074.06;4965464;28;20122;-67
2023/10/19 06:47:49;;;;;;;25.45;12.55;;;;;;;11.66;100.00;99076.06;4964570;28;20054;-66
2023/10/19 06:50:20;;;;;;;29.42;11.70;;;;;;;11.77;100.00;99084.19;4974061;28;20117;-66
2023/10/19 06:52:47;;;;;;;24.17;10.45;;;;;;;11.82;100.00;99077.38;4964610;28;20105;-66
2023/10/19 06:55:16;;;;;;;16.90;9.57;;;;;;;11.81;100.00;99072.38;4965786;28;20039;-66
2023/10/19 06:57:47;;;;;;;23.52;9.27;;;;;;;11.77;100.00;99077.22;4961998;28;20042;-66
2023/10/19 07:00:16;;;;;;;20.98;10.02;;;;;;;11.75;100.00;99078.41;4962546;28;21371;-66
2023/10/19 07:02:45;;;;;;;21.52;10.40;;;;;;;11.77;100.00;99076.41;4940585;28;20039;-67
2023/10/19 07:05:13;;;;;;;28.80;13.52;;;;;;;11.84;100.00;99077.19;4945996;28;20038;-66
2023/10/19 07:07:42;;;;;;;20.90;10.25;;;;;;;11.78;100.00;99091.78;4951684;28;20039;-67
2023/10/19 07:10:09;;;;;;;22.00;9.80;;;;;;;11.80;100.00;99091.59;4966043;28;20053;-67
2023/10/19 07:12:36;;;;;;;19.30;9.38;;;;;;;11.87;100.00;99092.38;4956550;28;20198;-66
2023/10/19 07:15:07;;;;;;;24.38;10.43;;;;;;;11.97;100.00;99090.16;4951645;28;20051;-66
2023/10/19 07:17:37;;;;;;;22.00;8.93;;;;;;;12.01;100.00;99096.53;4942839;28;20467;-67
2023/10/19 07:20:06;;;;;;;22.35;9.43;;;;;;;11.99;100.00;99100.34;4948269;28;20043;-66
2023/10/19 07:22:39;;;;;;;16.05;8.88;;;;;;;11.91;100.00;99090.97;4962668;28;20035;-66
2023/10/19 07:25:08;;;;;;;14.68;8.15;;;;;;;11.91;100.00;99090.97;4947573;28;20039;-66
2023/10/19 07:27:34;;;;;;;19.17;8.95;;;;;;;11.95;100.00;99086.16;4954455;28;20035;-67
2023/10/19 07:30:09;;;;;;;15.50;8.38;;;;;;;11.99;100.00;99084.75;4966811;28;20146;-66
2023/10/19 07:32:35;;;;;;;17.23;9.32;;;;;;;12.07;100.00;99095.72;4962072;28;20089;-67
2023/10/19 07:35:00;;;;;;;16.27;8.90;;;;;;;12.27;100.00;99089.63;4933042;28;20121;-66
2023/10/19 07:37:27;;;;;;;17.13;8.25;;;;;;;12.24;100.00;99083.03;4948296;28;20457;-67
2023/10/19 07:39:56;;;;;;;18.67;9.27;;;;;;;12.31;100.00;99082.19;4943900;28;20036;-67
2023/10/19 07:42:22;;;;;;;24.20;8.65;;;;;;;12.32;100.00;99087.19;4954905;28;20167;-67
2023/10/19 07:44:48;;;;;;;17.83;8.00;;;;;;;12.40;100.00;99084.34;4967906;28;20157;-66
2023/10/19 07:47:14;;;;;;;19.95;10.10;;;;;;;12.42;100.00;99086.72;4955178;28;20177;-66
2023/10/19 07:49:40;;;;;;;16.58;9.90;;;;;;;12.51;100.00;99082.06;4952164;28;20030;-66
2023/10/19 07:52:06;;;;;;;22.92;8.93;;;;;;;12.44;100.00;99080.31;4967506;28;20047;-66
2023/10/19 07:54:34;;;;;;;15.40;8.95;;;;;;;12.48;100.00;99078.09;4935721;28;20462;-66
2023/10/19 07:57:08;;;;;;;17.20;8.50;;;;;;;12.56;100.00;99077.03;4951789;28;20476;-68
2023/10/19 07:59:33;;;;;;;15.60;8.05;;;;;;;12.69;100.00;99073.56;4965672;28;20049;-68
2023/10/19 08:02:03;;;;;;;20.98;11.27;;;;;;;12.74;100.00;99063.31;4969352;28;20034;-68
2023/10/19 08:04:29;;;;;;;27.23;12.15;;;;;;;12.78;100.00;99069.69;4971126;28;20037;-68
2023/10/19 08:06:58;;;;;;;18.27;8.23;;;;;;;12.83;100.00;99073.25;4939721;28;20401;-68
2023/10/19 08:09:26;;;;;;;15.85;7.75;;;;;;;12.95;100.00;99064.75;4968376;28;20133;-68
2023/10/19 08:11:55;;;;;;;16.10;7.20;;;;;;;12.95;100.00;99062.94;4969891;28;20042;-68
2023/10/19 08:14:24;;;;;;;18.90;7.63;;;;;;;13.09;100.00;99070.63;4964614;28;20038;-68
2023/10/19 08:16:50;;;;;;;14.38;7.82;;;;;;;13.14;100.00;99063.75;4965804;28;20046;-68
2023/10/19 08:19:16;;;;;;;14.60;8.13;;;;;;;13.23;100.00;99059.88;4968372;28;20089;-68
2023/10/19 08:21:42;;;;;;;13.00;7.28;;;;;;;13.21;100.00;99054.09;4950586;28;20030;-68
2023/10/19 08:24:13;;;;;;;14.98;7.63;;;;;;;13.20;100.00;99049.09;4973783;28;20039;-68
2023/10/19 08:26:42;;;;;;;12.48;6.82;;;;;;;13.36;100.00;99056.38;4956581;28;20027;-68
2023/10/19 08:29:12;;;;;;;16.60;6.43;;;;;;;13.52;100.00;99041.19;4985475;28;20051;-68
2023/10/19 08:31:42;;;;;;;10.52;5.50;;;;;;;13.63;100.00;99048.28;4983695;28;20064;-68
2023/10/19 08:34:11;;;;;;;14.82;6.47;;;;;;;13.62;100.00;99050.09;4985228;28;20051;-68
2023/10/19 08:36:39;;;;;;;9.63;5.88;;;;;;;13.77;100.00;99051.53;4988513;28;20057;-68
2023/10/19 08:39:11;;;;;;;11.02;5.68;;;;;;;13.81;100.00;99040.44;4988022;28;20038;-68
2023/10/19 08:41:39;;;;;;;8.80;4.87;;;;;;;13.85;100.00;99034.81;4975342;28;20033;-68
2023/10/19 08:44:11;;;;;;;9.15;5.65;;;;;;;13.98;100.00;99032.81;4997678;28;20049;-68
2023/10/19 08:46:44;;;;;;;13.40;6.68;;;;;;;14.13;100.00;99029.03;4970531;28;20374;-68
2023/10/19 08:49:14;;;;;;;13.02;5.90;;;;;;;14.47;100.00;99030.13;4984532;28;20109;-68
2023/10/19 08:51:47;;;;;;;12.93;5.22;;;;;;;15.33;100.00;99027.88;4985852;28;20034;-70
2023/10/19 08:54:13;;;;;;;14.15;4.68;;;;;;;15.98;100.00;99028.63;4987726;28;20050;-68
2023/10/19 08:56:41;;;;;;;9.38;4.40;;;;;;;16.56;100.00;99026.72;4985023;28;20022;-68
2023/10/19 08:59:15;;;;;;;12.02;4.68;;;;;;;16.68;100.00;99026.63;4985690;28;20038;-69
2023/10/19 09:01:43;;;;;;;13.93;4.25;;;;;;;16.79;100.00;99027.59;4985676;28;21137;-70
2023/10/19 09:04:10;;;;;;;12.85;4.05;;;;;;;16.49;100.00;99026.88;4999753;28;20026;-68
2023/10/19 09:06:42;;;;;;;8.25;3.40;;;;;;;16.42;100.00;99022.81;4985223;28;20058;-68
2023/10/19 09:09:19;;;;;;;13.40;3.50;;;;;;;16.35;100.00;99002.84;4956529;28;20412;-68
2023/10/19 09:11:49;;;;;;;11.35;3.25;;;;;;;16.42;100.00;99012.34;4984342;28;20525;-69
2023/10/19 09:14:32;;;;;;;11.15;3.10;;;;;;;16.43;100.00;99003.50;4985103;28;20074;-68
2023/10/19 09:16:57;;;;;;;11.98;2.33;;;;;;;16.46;100.00;99000.38;4995940;28;20030;-69
2023/10/19 09:19:36;;;;;;;11.75;2.08;;;;;;;16.70;100.00;98995.78;4983626;28;20049;-68
2023/10/19 09:22:07;;;;;;;7.05;2.50;;;;;;;16.65;100.00;98996.50;4996505;28;20042;-69
2023/10/19 09:24:35;;;;;;;6.70;2.03;;;;;;;16.73;100.00;99000.53;4987666;28;20047;-68
2023/10/19 09:27:02;;;;;;;5.70;2.40;;;;;;;16.80;100.00;98990.72;4998170;28;20046;-69
2023/10/19 09:29:27;;;;;;;7.75;1.90;;;;;;;16.90;100.00;98987.47;4969397;28;20073;-66
2023/10/19 09:31:56;;;;;;;6.43;1.67;;;;;;;16.81;100.00;98989.66;4982399;28;20428;-66
2023/10/19 09:34:31;;;;;;;6.60;1.73;;;;;;;16.93;100.00;98985.16;4987446;28;20666;-66
2023/10/19 09:36:59;;;;;;;6.30;1.52;;;;;;;16.85;100.00;98992.63;4966475;28;20117;-66
2023/10/19 09:39:24;;;;;;;11.45;2.15;;;;;;;16.93;100.00;98986.97;4983001;28;20504;-66
2023/10/19 09:41:52;;;;;;;9.70;2.20;;;;;;;17.05;99.85;98992.91;4982039;28;20033;-66
2023/10/19 09:44:25;;;;;;;8.70;1.27;;;;;;;17.17;98.58;98987.53;4984839;28;20705;-66
2023/10/19 09:46:55;;;;;;;7.43;1.60;;;;;;;17.27;98.92;98992.09;4987132;28;20037;-66
2023/10/19 09:49:21;;;;;;;5.85;1.40;;;;;;;17.28;98.68;98985.84;4986147;28;20096;-66
2023/10/19 09:51:49;;;;;;;7.20;1.95;;;;;;;17.43;95.41;98987.84;4982863;28;20026;-66
2023/10/19 09:54:26;;;;;;;9.02;1.67;;;;;;;17.35;98.15;98981.22;4984349;28;20031;-66
2023/10/19 09:56:58;;;;;;;5.20;1.50;;;;;;;17.35;99.37;98989.06;4984730;28;20400;-66
2023/10/19 09:59:40;;;;;;;7.78;1.70;;;;;;;17.56;95.15;98984.06;4984843;28;20120;-66
2023/10/19 10:02:13;;;;;;;8.38;1.73;;;;;;;17.56;96.58;98984.06;4984810;28;20054;-66
2023/10/19 10:04:40;;;;;;;13.25;1.95;;;;;;;17.60;95.67;98985.94;4985609;28;20535;-66
2023/10/19 10:07:07;;;;;;;12.57;2.42;;;;;;;17.63;94.39;98979.41;4965893;28;20053;-66
2023/10/19 10:09:39;;;;;;;12.73;2.55;;;;;;;17.59;93.14;98973.88;4981726;28;20038;-66
2023/10/19 10:12:23;;;;;;;6.97;1.58;;;;;;;17.54;93.99;98973.84;4966946;28;20042;-66
2023/10/19 10:15:04;;;;;;;14.98;2.60;;;;;;;17.55;96.02;98983.25;4986131;28;20026;-66
2023/10/19 10:17:37;;;;;;;12.45;2.35;;;;;;;17.59;92.96;98973.88;4964492;28;20038;-66
2023/10/19 10:20:11;;;;;;;5.00;1.67;;;;;;;17.75;95.03;98976.66;4980521;28;20547;-66
2023/10/19 10:22:37;;;;;;;8.25;1.80;;;;;;;17.65;94.08;98974.72;4980208;28;20037;-66
2023/10/19 10:25:02;;;;;;;8.77;2.08;;;;;;;17.67;94.54;98968.19;4984934;28;20393;-66
2023/10/19 10:27:30;;;;;;;10.23;1.52;;;;;;;17.67;94.55;98959.56;4983800;28;20052;-66
2023/10/19 10:30:05;;;;;;;7.85;2.00;;;;;;;17.74;94.00;98969.81;5006153;23;20045;-66
2023/10/19 10:32:55;;;;;;;5.35;1.80;;;;;;;17.63;96.38;98974.97;5029710;28;20698;-66
2023/10/19 10:35:36;;;;;;;10.15;1.98;;;;;;;17.64;95.42;98973.94;5018585;28;20052;-66
2023/10/19 10:38:06;;;;;;;13.07;2.35;;;;;;;17.96;92.43;98975.84;5038053;28;20493;-66
2023/10/19 10:40:42;;;;;;;9.43;2.17;;;;;;;18.14;92.57;98968.63;5023703;28;20037;-66
2023/10/19 10:43:08;;;;;;;12.55;1.75;;;;;;;18.09;89.32;98964.16;5039071;28;20090;-66
2023/10/19 10:45:33;;;;;;;9.40;1.80;;;;;;;18.04;91.33;98969.34;5023416;28;20037;-66
2023/10/19 10:48:00;;;;;;;9.70;2.33;;;;;;;17.97;93.27;98961.69;5022677;28;20120;-66
2023/10/19 10:50:28;;;;;;;13.75;2.45;;;;;;;18.17;91.69;98961.06;5038127;28;20107;-66
2023/10/19 10:52:57;;;;;;;8.23;2.03;;;;;;;18.26;91.51;98953.53;5038642;28;20047;-66
2023/10/19 10:55:25;;;;;;;12.70;2.28;;;;;;;18.14;90.46;98966.00;5027496;28;20044;-65
2023/10/19 10:57:51;;;;;;;10.07;2.70;;;;;;;17.99;92.09;98964.88;5042315;28;20530;-66
2023/10/19 11:00:17;;;;;;;9.27;1.80;;;;;;;18.06;92.47;98954.97;5040570;28;20159;-66
2023/10/19 11:02:49;;;;;;;9.05;2.58;;;;;;;17.96;93.94;98954.09;5041264;28;20049;-66
2023/10/19 11:05:16;;;;;;;13.93;2.28;;;;;;;18.02;92.70;98948.63;5042530;28;20040;-66
2023/10/19 11:08:09;;;;;;;9.55;2.15;;;;;;;18.04;89.85;98946.53;5024607;28;20052;-66
2023/10/19 11:10:36;;;;;;;8.75;2.80;;;;;;;18.06;91.32;98952.34;5028207;28;20580;-65
2023/10/19 11:13:03;;;;;;;10.88;2.58;;;;;;;18.13;90.44;98948.72;5041114;28;20513;-66
2023/10/19 11:15:29;;;;;;;9.18;2.10;;;;;;;17.98;91.47;98939.66;5024013;28;20040;-66
2023/10/19 11:17:55;;;;;;;9.15;2.50;;;;;;;18.01;92.47;98928.69;5038903;28;20037;-66
2023/10/19 11:20:23;;;;;;;8.30;1.85;;;;;;;17.89;92.25;98922.81;5042515;28;20379;-66
2023/10/19 11:22:50;;;;;;;12.55;2.35;;;;;;;17.91;91.64;98923.34;5043298;28;20047;-66
2023/10/19 11:25:19;;;;;;;12.48;3.30;;;;;;;17.90;89.85;98927.03;5012908;28;20116;-66
2023/10/19 11:27:45;;;;;;;12.27;2.17;;;;;;;17.85;90.89;98934.84;5026287;28;20064;-65
2023/10/19 11:30:11;;;;;;;7.93;1.80;;;;;;;17.94;91.20;98930.72;5047109;28;20398;-66
2023/10/19 11:32:39;;;;;;;13.35;2.63;;;;;;;17.97;90.65;98919.75;5041880;28;20875;-66
2023/10/19 11:35:09;;;;;;;12.88;2.22;;;;;;;17.99;91.62;98909.00;5039012;28;20063;-66
2023/10/19 11:37:52;;;;;;;10.50;2.50;;;;;;;18.18;90.33;98912.03;5026112;28;20036;-66
2023/10/19 11:40:19;;;;;;;11.80;2.60;;;;;;;18.19;90.69;98924.88;5027970;28;20040;-66
2023/10/19 11:42:45;;;;;;;11.95;2.15;;;;;;;18.03;90.31;98920.59;5037674;28;20056;-66